createdAt,value
2019-02-26T00:00:36.777Z,14.10
2019-02-26T00:03:05.282Z,13.00
2019-02-26T00:05:33.779Z,11.10
2019-02-26T00:08:02.589Z,11.53
2019-02-26T00:10:32.315Z,12.97
2019-02-26T00:13:01.518Z,14.13
2019-02-26T00:15:33.355Z,10.97
2019-02-26T00:18:00.236Z,12.47
2019-02-26T00:20:31.280Z,16.47
2019-02-26T00:22:59.855Z,10.80
2019-02-26T00:25:29.265Z,11.83
2019-02-26T00:27:58.651Z,11.00
2019-02-26T00:30:27.376Z,13.93
2019-02-26T00:32:57.711Z,12.10
2019-02-26T00:35:27.616Z,10.97
2019-02-26T00:37:56.277Z,10.33
2019-02-26T00:40:24.779Z,17.80
2019-02-26T00:42:56.524Z,24.40
2019-02-26T00:45:26.895Z,15.40
2019-02-26T00:47:53.779Z,18.87
2019-02-26T00:50:22.285Z,19.10
2019-02-26T00:52:52.361Z,16.17
2019-02-26T00:55:23.137Z,11.63
2019-02-26T00:57:51.289Z,11.83
2019-02-26T01:00:19.792Z,10.53
2019-02-26T01:02:48.288Z,10.87
2019-02-26T01:05:16.898Z,9.57
2019-02-26T01:07:47.416Z,8.87
2019-02-26T01:10:16.414Z,8.60
2019-02-26T01:12:45.880Z,8.57
2019-02-26T01:15:19.155Z,17.07
2019-02-26T01:17:47.659Z,13.57
2019-02-26T01:20:19.314Z,16.00
2019-02-26T01:22:47.599Z,10.53
2019-02-26T01:25:18.498Z,8.90
2019-02-26T01:27:48.288Z,9.23
2019-02-26T01:30:20.743Z,7.67
2019-02-26T01:32:46.928Z,7.67
2019-02-26T01:35:15.441Z,19.47
2019-02-26T01:37:43.969Z,18.87
2019-02-26T01:40:15.826Z,15.40
2019-02-26T01:42:47.252Z,11.33
2019-02-26T01:45:13.824Z,21.40
2019-02-26T01:47:44.906Z,15.57
2019-02-26T01:50:13.967Z,13.30
2019-02-26T01:52:43.412Z,11.20
2019-02-26T01:55:12.307Z,12.33
2019-02-26T01:57:43.438Z,13.27
2019-02-26T02:00:16.598Z,28.80
2019-02-26T02:02:45.122Z,22.73
2019-02-26T02:05:13.651Z,18.20
2019-02-26T02:07:44.223Z,14.50
2019-02-26T02:10:15.124Z,15.57
2019-02-26T02:12:43.629Z,14.83
2019-02-26T02:15:18.239Z,13.83
2019-02-26T02:17:46.008Z,14.77
2019-02-26T02:20:20.823Z,16.17
2019-02-26T02:22:47.817Z,14.83
2019-02-26T02:25:16.325Z,22.20
2019-02-26T02:27:47.714Z,16.10
2019-02-26T02:30:22.402Z,15.37
2019-02-26T02:32:50.409Z,13.47
2019-02-26T02:35:19.102Z,13.83
2019-02-26T02:37:47.074Z,13.97
2019-02-26T02:40:15.587Z,17.77
2019-02-26T02:42:48.443Z,15.03
2019-02-26T02:45:16.983Z,13.67
2019-02-26T02:47:44.552Z,11.80
2019-02-26T02:50:15.074Z,12.40
2019-02-26T02:52:44.166Z,11.73
2019-02-26T02:55:15.635Z,11.73
2019-02-26T02:57:42.920Z,9.47
2019-02-26T03:00:16.102Z,19.17
2019-02-26T03:02:46.484Z,18.10
2019-02-26T03:05:14.834Z,17.23
2019-02-26T03:07:46.088Z,22.60
2019-02-26T03:10:15.205Z,21.27
2019-02-26T03:12:47.663Z,18.37
2019-02-26T03:15:15.071Z,17.47
2019-02-26T03:17:43.571Z,18.90
2019-02-26T03:20:15.149Z,21.23
2019-02-26T03:22:48.307Z,18.30
2019-02-26T03:25:20.977Z,28.87
2019-02-26T03:27:48.035Z,22.33
2019-02-26T03:30:27.461Z,18.03
2019-02-26T03:32:58.644Z,17.17
2019-02-26T03:35:23.804Z,17.50
2019-02-26T03:37:55.628Z,17.50
2019-02-26T03:40:24.097Z,20.90
2019-02-26T03:42:52.968Z,18.70
2019-02-26T03:45:24.723Z,20.00
2019-02-26T03:47:51.770Z,18.10
2019-02-26T03:50:20.258Z,19.63
2019-02-26T03:52:48.777Z,20.03
2019-02-26T03:55:18.934Z,19.13
2019-02-26T03:57:50.579Z,23.27
2019-02-26T04:00:19.854Z,21.73
2019-02-26T04:02:51.281Z,26.53
2019-02-26T04:05:18.933Z,25.73
2019-02-26T04:07:49.845Z,18.40
2019-02-26T04:10:17.679Z,16.17
2019-02-26T04:12:48.715Z,24.30
2019-02-26T04:15:17.455Z,38.37
2019-02-26T04:17:45.950Z,51.67
2019-02-26T04:20:15.258Z,38.70
2019-02-26T04:22:49.029Z,35.07
2019-02-26T04:25:33.958Z,42.47
2019-02-26T04:28:10.838Z,50.23
2019-02-26T04:30:56.980Z,28.03
2019-02-26T04:33:49.630Z,36.67
2019-02-26T04:36:27.342Z,45.17
2019-02-26T04:39:16.366Z,171.67
2019-02-26T04:42:09.436Z,39.67
2019-02-26T04:44:58.114Z,44.83
2019-02-26T04:47:30.782Z,67.23
2019-02-26T04:50:00.501Z,37.73
2019-02-26T04:52:29.581Z,139.90
2019-02-26T04:54:59.122Z,77.00
2019-02-26T04:57:27.702Z,45.93
2019-02-26T04:59:58.377Z,47.27
2019-02-26T05:02:26.436Z,23.23
2019-02-26T05:04:54.942Z,25.30
2019-02-26T05:07:23.467Z,33.13
2019-02-26T05:09:53.797Z,25.10
2019-02-26T05:12:25.111Z,31.10
2019-02-26T05:14:52.487Z,40.80
2019-02-26T05:17:23.795Z,39.70
2019-02-26T05:19:51.852Z,48.00
2019-02-26T05:22:24.870Z,76.00
2019-02-26T05:24:52.898Z,178.67
2019-02-26T05:27:22.750Z,97.33
2019-02-26T05:29:54.542Z,121.07
2019-02-26T05:32:26.557Z,59.60
2019-02-26T05:34:52.328Z,111.10
2019-02-26T05:37:20.825Z,73.93
2019-02-26T05:39:51.705Z,49.10
2019-02-26T05:42:19.567Z,27.03
2019-02-26T05:44:48.073Z,31.40
2019-02-26T05:47:18.671Z,31.60
2019-02-26T05:49:46.854Z,66.90
2019-02-26T05:52:15.428Z,80.13
2019-02-26T05:54:43.944Z,37.97
2019-02-26T05:57:27.196Z,88.27
2019-02-26T05:59:42.768Z,104.23
2019-02-26T06:02:13.409Z,58.97
2019-02-26T06:04:43.874Z,70.40
2019-02-26T06:07:11.749Z,41.97
2019-02-26T06:09:40.243Z,26.17
2019-02-26T06:12:08.803Z,20.77
2019-02-26T06:14:39.333Z,30.83
2019-02-26T06:17:09.698Z,31.47
2019-02-26T06:19:48.312Z,63.27
2019-02-26T06:22:18.214Z,56.20
2019-02-26T06:24:47.106Z,41.83
2019-02-26T06:27:18.309Z,63.37
2019-02-26T06:29:45.828Z,44.37
2019-02-26T06:32:16.139Z,24.07
2019-02-26T06:34:44.635Z,33.47
2019-02-26T06:37:16.632Z,64.20
2019-02-26T06:39:45.276Z,61.47
2019-02-26T06:42:14.512Z,132.27
2019-02-26T06:44:43.746Z,67.50
2019-02-26T06:47:13.396Z,58.67
2019-02-26T06:49:43.238Z,34.17
2019-02-26T06:52:13.125Z,88.37
2019-02-26T06:54:45.258Z,32.50
2019-02-26T06:57:12.636Z,261.20
2019-02-26T06:59:41.134Z,220.13
2019-02-26T07:02:11.034Z,175.53
2019-02-26T07:04:40.025Z,97.00
2019-02-26T07:07:12.190Z,47.83
2019-02-26T07:09:39.615Z,51.33
2019-02-26T07:12:08.974Z,97.97
2019-02-26T07:14:37.502Z,44.03
2019-02-26T07:17:05.974Z,40.67
2019-02-26T07:19:35.854Z,47.73
2019-02-26T07:22:05.417Z,53.47
2019-02-26T07:24:34.942Z,49.93
2019-02-26T07:27:04.301Z,100.63
2019-02-26T07:29:37.544Z,84.33
2019-02-26T07:32:03.927Z,64.13
2019-02-26T07:34:32.429Z,31.70
2019-02-26T07:37:00.945Z,28.13
2019-02-26T07:39:29.474Z,26.67
2019-02-26T07:41:57.971Z,28.83
2019-02-26T07:44:28.339Z,64.37
2019-02-26T07:46:58.436Z,47.57
2019-02-26T07:49:26.906Z,42.67
2019-02-26T07:51:57.411Z,47.93
2019-02-26T07:54:25.661Z,36.23
2019-02-26T07:56:55.116Z,37.50
2019-02-26T07:59:27.640Z,55.93
2019-02-26T08:01:54.635Z,76.43
2019-02-26T08:04:23.179Z,85.30
2019-02-26T08:06:52.416Z,245.70
2019-02-26T08:09:23.624Z,120.90
2019-02-26T08:11:52.201Z,124.53
2019-02-26T08:14:21.374Z,256.30
2019-02-26T08:16:53.669Z,172.80
2019-02-26T08:19:21.225Z,54.83
2019-02-26T08:21:50.362Z,95.73
2019-02-26T08:24:23.840Z,103.87
2019-02-26T08:26:50.186Z,49.37
2019-02-26T08:29:18.732Z,60.07
2019-02-26T08:31:49.398Z,63.33
2019-02-26T08:34:17.458Z,94.70
2019-02-26T08:36:46.773Z,117.40
2019-02-26T08:39:15.878Z,82.37
2019-02-26T08:41:56.762Z,85.27
2019-02-26T08:44:25.248Z,76.40
2019-02-26T08:46:53.746Z,67.70
2019-02-26T08:49:22.607Z,46.17
2019-02-26T08:51:51.076Z,60.60
2019-02-26T08:54:21.113Z,38.00
2019-02-26T08:56:49.840Z,55.33
2019-02-26T08:59:20.099Z,66.90
2019-02-26T09:01:48.723Z,94.07
2019-02-26T09:04:19.175Z,45.90
2019-02-26T09:06:47.491Z,29.07
2019-02-26T09:09:15.990Z,32.93
2019-02-26T09:11:44.506Z,50.97
2019-02-26T09:14:14.233Z,36.40
2019-02-26T09:16:43.236Z,29.37
2019-02-26T09:19:11.770Z,35.37
2019-02-26T09:21:42.608Z,28.83
2019-02-26T09:24:16.863Z,48.47
2019-02-26T09:26:45.358Z,44.90
2019-02-26T09:30:06.728Z,38.30
2019-02-26T09:32:44.862Z,27.50
2019-02-26T09:35:16.919Z,38.10
2019-02-26T09:37:47.324Z,28.30
2019-02-26T09:43:06.117Z,29.20
2019-02-26T09:45:34.845Z,27.00
2019-02-26T09:48:03.414Z,29.23
2019-02-26T09:50:31.902Z,30.40
2019-02-26T09:53:00.391Z,42.13
2019-02-26T09:55:28.940Z,33.23
2019-02-26T09:57:57.446Z,32.90
2019-02-26T10:00:29.117Z,33.93
2019-02-26T10:02:56.208Z,50.00
2019-02-26T10:05:24.700Z,41.93
2019-02-26T10:07:54.980Z,39.13
2019-02-26T10:10:26.054Z,102.77
2019-02-26T10:12:56.467Z,66.87
2019-02-26T10:15:24.419Z,41.13
2019-02-26T10:17:52.942Z,45.23
2019-02-26T10:20:31.016Z,27.30
2019-02-26T10:23:00.748Z,28.40
2019-02-26T10:25:31.037Z,30.17
2019-02-26T10:28:03.084Z,38.13
2019-02-26T10:30:31.404Z,37.50
2019-02-26T10:33:01.839Z,33.10
2019-02-26T10:35:33.272Z,27.17
2019-02-26T10:38:02.827Z,32.63
2019-02-26T10:40:35.303Z,26.53
2019-02-26T10:43:00.192Z,42.80
2019-02-26T10:45:29.591Z,44.00
2019-02-26T10:47:59.429Z,27.23
2019-02-26T10:50:31.788Z,29.70
2019-02-26T10:53:06.951Z,44.63
2019-02-26T10:55:35.319Z,33.13
2019-02-26T10:58:03.587Z,35.67
2019-02-26T11:00:32.176Z,37.17
2019-02-26T11:03:00.359Z,31.13
2019-02-26T11:05:28.865Z,35.00
2019-02-26T11:07:59.708Z,27.10
2019-02-26T11:10:27.608Z,33.00
2019-02-26T11:12:58.554Z,29.20
2019-02-26T11:15:29.793Z,47.33
2019-02-26T11:17:56.635Z,35.37
2019-02-26T11:20:27.834Z,28.17
2019-02-26T11:22:55.372Z,27.73
2019-02-26T11:25:26.524Z,26.40
2019-02-26T11:27:54.135Z,29.97
2019-02-26T11:30:28.535Z,28.40
2019-02-26T11:32:58.633Z,37.17
2019-02-26T11:35:25.405Z,31.63
2019-02-26T11:37:55.441Z,41.27
2019-02-26T11:40:28.100Z,39.13
2019-02-26T11:42:55.756Z,57.03
2019-02-26T11:45:24.666Z,30.03
2019-02-26T11:47:55.177Z,29.47
2019-02-26T11:50:28.025Z,29.53
2019-02-26T11:52:55.041Z,24.43
2019-02-26T11:55:26.177Z,28.93
2019-02-26T11:57:53.993Z,44.10
2019-02-26T12:00:37.322Z,60.53
2019-02-26T12:03:04.986Z,52.43
2019-02-26T12:05:35.890Z,67.43
2019-02-26T12:08:03.723Z,36.13
2019-02-26T12:10:33.205Z,32.07
2019-02-26T12:13:02.487Z,31.17
2019-02-26T12:15:33.457Z,54.23
2019-02-26T12:18:01.264Z,45.73
2019-02-26T12:20:30.577Z,26.30
2019-02-26T12:22:59.127Z,22.10
2019-02-26T12:25:27.634Z,28.13
2019-02-26T12:27:56.195Z,29.27
2019-02-26T12:30:26.504Z,42.73
2019-02-26T12:32:55.261Z,33.67
2019-02-26T12:35:23.805Z,35.07
2019-02-26T12:37:53.899Z,33.30
2019-02-26T12:40:25.336Z,30.20
2019-02-26T12:42:52.804Z,37.80
2019-02-26T12:45:22.702Z,24.43
2019-02-26T12:47:53.093Z,24.77
2019-02-26T12:50:26.096Z,29.27
2019-02-26T12:52:53.837Z,26.23
2019-02-26T12:55:28.970Z,30.23
2019-02-26T12:57:56.340Z,35.27
2019-02-26T13:00:24.493Z,34.27
2019-02-26T13:02:52.991Z,28.50
2019-02-26T13:05:23.013Z,33.93
2019-02-26T13:07:51.814Z,30.60
2019-02-26T13:10:27.758Z,30.63
2019-02-26T13:13:00.026Z,43.37
2019-02-26T13:15:26.490Z,36.53
2019-02-26T13:17:54.993Z,108.93
2019-02-26T13:20:29.488Z,37.00
2019-02-26T13:23:16.470Z,56.43
2019-02-26T13:25:28.265Z,41.37
2019-02-26T13:27:56.776Z,61.17
2019-02-26T13:30:25.887Z,50.67
2019-02-26T13:32:59.792Z,37.67
2019-02-26T13:35:24.632Z,47.23
2019-02-26T13:37:55.429Z,62.90
2019-02-26T13:40:24.721Z,38.47
2019-02-26T13:45:24.660Z,40.67
2019-02-26T13:48:00.732Z,57.23
2019-02-26T13:50:28.843Z,42.13
2019-02-26T13:52:57.314Z,48.83
2019-02-26T13:55:25.822Z,49.80
2019-02-26T13:57:54.335Z,27.97
2019-02-26T14:00:26.223Z,30.93
2019-02-26T14:02:53.242Z,34.23
2019-02-26T14:05:21.747Z,45.23
2019-02-26T14:07:50.278Z,34.73
2019-02-26T14:10:20.939Z,36.53
2019-02-26T14:12:49.504Z,94.13
2019-02-26T14:15:23.762Z,51.27
2019-02-26T14:17:52.569Z,30.20
2019-02-26T14:20:21.553Z,20.07
2019-02-26T14:22:50.066Z,23.63
2019-02-26T14:25:18.664Z,20.53
2019-02-26T14:27:47.190Z,27.50
2019-02-26T14:30:21.078Z,54.17
2019-02-26T14:32:49.616Z,34.73
2019-02-26T14:35:18.121Z,36.30
2019-02-26T14:37:46.698Z,68.47
2019-02-26T14:40:18.662Z,32.23
2019-02-26T14:42:47.167Z,29.87
2019-02-26T14:45:24.069Z,54.57
2019-02-26T14:47:52.579Z,52.00
2019-02-26T14:50:22.232Z,48.17
2019-02-26T14:52:50.740Z,85.27
2019-02-26T14:55:19.247Z,92.17
2019-02-26T14:57:47.780Z,72.10
2019-02-26T15:00:29.839Z,135.80
2019-02-26T15:02:58.465Z,67.03
2019-02-26T15:05:26.967Z,78.13
2019-02-26T15:07:55.466Z,77.67
2019-02-26T15:10:24.005Z,135.23
2019-02-26T15:12:52.591Z,158.13
2019-02-26T15:15:21.171Z,148.70
2019-02-26T15:17:49.697Z,95.63
2019-02-26T15:20:20.272Z,95.33
2019-02-26T15:22:48.849Z,134.93
2019-02-26T15:25:24.917Z,171.83
2019-02-26T15:27:53.469Z,201.43
2019-02-26T15:30:22.398Z,110.47
2019-02-26T15:32:50.961Z,63.93
2019-02-26T15:35:19.484Z,44.67
2019-02-26T15:37:48.006Z,40.40
2019-02-26T15:40:20.085Z,95.60
2019-02-26T15:42:52.445Z,62.27
2019-02-26T15:45:28.880Z,59.80
2019-02-26T15:47:56.851Z,41.47
2019-02-26T15:50:25.356Z,32.03
2019-02-26T15:52:53.862Z,41.83
2019-02-26T15:55:32.149Z,40.57
2019-02-26T15:58:04.343Z,37.17
2019-02-26T16:00:30.915Z,47.40
2019-02-26T16:03:00.127Z,51.23
2019-02-26T16:05:33.931Z,53.50
2019-02-26T16:08:02.434Z,55.93
2019-02-26T16:10:30.973Z,70.27
2019-02-26T16:13:05.706Z,57.10
2019-02-26T16:15:38.762Z,64.77
2019-02-26T16:18:07.255Z,49.60
2019-02-26T16:20:35.759Z,49.80
2019-02-26T16:23:04.258Z,44.87
2019-02-26T16:25:32.758Z,89.57
2019-02-26T16:28:01.320Z,156.83
2019-02-26T16:30:29.938Z,197.17
2019-02-26T16:32:58.545Z,454.93
2019-02-26T16:35:27.064Z,233.97
2019-02-26T16:37:55.577Z,353.30
2019-02-26T16:40:24.120Z,212.90
2019-02-26T16:42:52.626Z,193.70
2019-02-26T16:45:22.809Z,165.63
2019-02-26T16:47:51.320Z,179.13
2019-02-26T16:50:22.588Z,237.47
2019-02-26T16:52:51.130Z,146.47
2019-02-26T16:55:20.243Z,113.57
2019-02-26T16:57:48.925Z,172.77
2019-02-26T17:00:30.551Z,94.70
2019-02-26T17:03:01.013Z,103.77
2019-02-26T17:05:29.343Z,114.63
2019-02-26T17:07:58.114Z,78.07
2019-02-26T17:10:30.214Z,81.23
2019-02-26T17:13:01.985Z,62.63
2019-02-26T17:15:32.790Z,71.77
2019-02-26T17:18:01.334Z,107.90
2019-02-26T17:20:29.836Z,105.90
2019-02-26T17:22:58.350Z,107.97
2019-02-26T17:25:28.465Z,95.20
2019-02-26T17:27:57.224Z,101.47
2019-02-26T17:30:25.720Z,83.53
2019-02-26T17:32:54.238Z,116.67
2019-02-26T17:35:22.721Z,95.70
2019-02-26T17:37:51.269Z,75.47
2019-02-26T17:40:21.747Z,75.67
2019-02-26T17:42:51.242Z,104.20
2019-02-26T17:45:25.805Z,164.27
2019-02-26T17:47:56.472Z,199.60
2019-02-26T17:50:30.756Z,167.63
2019-02-26T17:52:59.257Z,254.63
2019-02-26T17:55:27.833Z,285.83
2019-02-26T17:57:56.345Z,378.43
2019-02-26T18:00:27.049Z,231.67
2019-02-26T18:02:55.626Z,182.97
2019-02-26T18:05:24.118Z,176.70
2019-02-26T18:07:52.616Z,153.03
2019-02-26T18:10:22.949Z,208.90
2019-02-26T18:12:51.461Z,91.70
2019-02-26T18:15:20.831Z,86.43
2019-02-26T18:17:49.554Z,79.60
2019-02-26T18:20:19.397Z,90.13
2019-02-26T18:22:47.952Z,115.47
2019-02-26T18:25:18.935Z,57.77
2019-02-26T18:27:47.449Z,63.47
2019-02-26T18:30:21.388Z,115.57
2019-02-26T18:32:50.652Z,112.77
2019-02-26T18:35:20.192Z,162.43
2019-02-26T18:37:48.720Z,115.03
2019-02-26T18:40:17.924Z,52.10
2019-02-26T18:42:46.650Z,75.63
2019-02-26T18:45:27.910Z,89.10
2019-02-26T18:47:56.598Z,79.80
2019-02-26T18:50:25.907Z,72.60
2019-02-26T18:52:55.324Z,55.40
2019-02-26T18:55:27.935Z,66.80
2019-02-26T18:57:54.524Z,82.33
2019-02-26T19:00:29.351Z,72.93
2019-02-26T19:02:57.875Z,41.93
2019-02-26T19:05:26.384Z,78.93
2019-02-26T19:07:54.897Z,92.67
2019-02-26T19:10:23.404Z,75.93
2019-02-26T19:12:51.937Z,52.23
2019-02-26T19:15:35.911Z,91.43
2019-02-26T19:18:04.482Z,182.27
2019-02-26T19:20:35.267Z,66.73
2019-02-26T19:23:03.748Z,48.27
2019-02-26T19:25:32.254Z,64.60
2019-02-26T19:28:00.766Z,58.87
2019-02-26T19:30:29.380Z,77.03
2019-02-26T19:32:57.878Z,77.60
2019-02-26T19:35:26.376Z,60.43
2019-02-26T19:37:57.695Z,249.40
2019-02-26T19:40:44.058Z,230.17
2019-02-26T19:43:12.587Z,348.83
2019-02-26T19:45:43.818Z,158.13
2019-02-26T19:48:11.328Z,124.90
2019-02-26T19:50:39.840Z,119.90
2019-02-26T19:53:08.362Z,113.07
2019-02-26T19:55:39.697Z,104.50
2019-02-26T19:58:08.205Z,81.33
2019-02-26T20:00:36.815Z,76.73
2019-02-26T20:03:06.249Z,173.47
2019-02-26T20:05:34.931Z,80.37
2019-02-26T20:08:05.348Z,71.57
2019-02-26T20:10:33.686Z,66.33
2019-02-26T20:13:04.004Z,48.80
2019-02-26T20:15:32.412Z,76.20
2019-02-26T20:18:00.921Z,55.13
2019-02-26T20:20:29.469Z,59.20
2019-02-26T20:22:57.970Z,50.33
2019-02-26T20:25:26.475Z,45.17
2019-02-26T20:27:58.066Z,55.33
2019-02-26T20:30:25.217Z,74.83
2019-02-26T20:32:53.773Z,52.17
2019-02-26T20:35:22.323Z,49.53
2019-02-26T20:37:50.842Z,49.33
2019-02-26T20:40:21.712Z,65.30
2019-02-26T20:42:50.228Z,60.97
2019-02-26T20:45:19.477Z,64.40
2019-02-26T20:47:47.973Z,74.13
2019-02-26T20:50:19.993Z,61.17
2019-02-26T20:52:46.734Z,71.03
2019-02-26T20:55:19.125Z,85.87
2019-02-26T20:57:48.486Z,57.60
2019-02-26T21:00:18.591Z,71.07
2019-02-26T21:02:47.393Z,92.37
2019-02-26T21:05:15.907Z,73.27
2019-02-26T21:07:44.407Z,89.97
2019-02-26T21:10:17.642Z,96.73
2019-02-26T21:12:46.141Z,73.67
2019-02-26T21:15:19.979Z,70.10
2019-02-26T21:17:48.486Z,48.00
2019-02-26T21:20:16.987Z,44.67
2019-02-26T21:22:45.530Z,41.93
2019-02-26T21:25:14.453Z,48.40
2019-02-26T21:27:42.939Z,38.87
2019-02-26T21:30:19.837Z,45.00
2019-02-26T21:32:48.335Z,42.03
2019-02-26T21:35:20.067Z,44.60
2019-02-26T21:37:48.302Z,37.80
2019-02-26T21:40:17.171Z,38.13
2019-02-26T21:42:45.704Z,41.43
2019-02-26T21:45:17.874Z,41.57
2019-02-26T21:47:46.369Z,41.97
2019-02-26T21:50:15.579Z,38.33
2019-02-26T21:52:44.076Z,42.83
2019-02-26T21:55:13.612Z,41.20
2019-02-26T21:57:42.118Z,39.87
2019-02-26T22:00:20.286Z,37.37
2019-02-26T22:02:51.938Z,39.07
2019-02-26T22:05:19.186Z,35.90
2019-02-26T22:07:52.069Z,35.77
2019-02-26T22:10:22.443Z,34.10
2019-02-26T22:12:50.978Z,40.80
2019-02-26T22:15:19.474Z,38.30
2019-02-26T22:17:47.985Z,40.57
2019-02-26T22:20:35.539Z,39.57
2019-02-26T22:22:50.290Z,35.20
2019-02-26T22:25:18.894Z,38.90
2019-02-26T22:27:47.427Z,36.40
2019-02-26T22:30:21.463Z,35.47
2019-02-26T22:32:47.479Z,31.40
2019-02-26T22:35:15.976Z,34.10
2019-02-26T22:37:44.515Z,36.47
2019-02-26T22:40:14.017Z,32.73
2019-02-26T22:42:42.531Z,33.77
2019-02-26T22:45:13.486Z,37.73
2019-02-26T22:47:43.918Z,31.50
2019-02-26T22:50:14.328Z,35.30
2019-02-26T22:52:43.627Z,33.70
2019-02-26T22:55:17.172Z,33.57
2019-02-26T22:57:45.805Z,35.47
2019-02-26T23:00:27.993Z,35.80
2019-02-26T23:02:56.496Z,35.53
2019-02-26T23:05:25.638Z,33.60
2019-02-26T23:07:54.635Z,39.43
2019-02-26T23:10:24.729Z,42.23
2019-02-26T23:12:53.358Z,34.17
2019-02-26T23:15:21.870Z,36.80
2019-02-26T23:17:50.368Z,35.23
2019-02-26T23:20:18.927Z,33.27
2019-02-26T23:22:47.410Z,33.23
2019-02-26T23:25:16.003Z,33.10
2019-02-26T23:27:46.036Z,31.90
2019-02-26T23:30:14.934Z,40.97
2019-02-26T23:32:43.493Z,34.17
2019-02-26T23:35:14.152Z,34.30
2019-02-26T23:37:42.679Z,40.07
2019-02-26T23:40:12.062Z,33.23
2019-02-26T23:42:40.562Z,37.47
2019-02-26T23:45:10.801Z,39.77
2019-02-26T23:47:39.299Z,35.43
2019-02-26T23:50:09.401Z,35.60
2019-02-26T23:52:37.910Z,36.40
2019-02-26T23:55:08.009Z,33.43
2019-02-26T23:57:36.558Z,36.10
